Terminal Aerodrome Forecast
Issued by NWS

Current Version | Previous Version | Text Only | Print | Product List | Glossary On
Versions: 1 2 3 4 5 6 7 8 9 10 11 12
000
FTUS42 TJSJ 052344
TAFISX
TAF
TISX 052344Z 0600/0624 08011KT P6SM FEW025
     FM061300 11015G25KT P6SM FEW030 FEW050
     FM062300 07010KT P6SM SKC=

USA.gov is the U.S. government's official web portal to all federal, state and local government web resources and services.